sensor_id;sensor_type;location;lat;lon;timestamp;temperature;humidity
4755;DHT22;2391;47.212;7.542;2022-07-22T00:01:30;25.90;72.80
4755;DHT22;2391;47.212;7.542;2022-07-22T00:03:56;25.90;72.40
4755;DHT22;2391;47.212;7.542;2022-07-22T00:06:23;25.90;72.40
4755;DHT22;2391;47.212;7.542;2022-07-22T00:08:49;25.80;72.80
4755;DHT22;2391;47.212;7.542;2022-07-22T00:11:15;25.80;72.80
4755;DHT22;2391;47.212;7.542;2022-07-22T00:13:41;25.80;72.70
4755;DHT22;2391;47.212;7.542;2022-07-22T00:16:07;25.80;72.90
4755;DHT22;2391;47.212;7.542;2022-07-22T00:18:33;25.70;72.80
4755;DHT22;2391;47.212;7.542;2022-07-22T00:20:59;25.80;73.40
4755;DHT22;2391;47.212;7.542;2022-07-22T00:23:25;25.70;73.40
4755;DHT22;2391;47.212;7.542;2022-07-22T00:25:52;25.60;73.40
4755;DHT22;2391;47.212;7.542;2022-07-22T00:28:19;25.60;73.40
4755;DHT22;2391;47.212;7.542;2022-07-22T00:30:45;25.60;73.90
4755;DHT22;2391;47.212;7.542;2022-07-22T00:33:11;25.60;73.00
4755;DHT22;2391;47.212;7.542;2022-07-22T00:35:37;25.50;73.20
4755;DHT22;2391;47.212;7.542;2022-07-22T00:38:04;25.50;73.10
4755;DHT22;2391;47.212;7.542;2022-07-22T00:40:30;25.50;73.00
4755;DHT22;2391;47.212;7.542;2022-07-22T00:42:56;25.50;73.10
4755;DHT22;2391;47.212;7.542;2022-07-22T00:45:22;25.50;73.60
4755;DHT22;2391;47.212;7.542;2022-07-22T00:47:48;25.50;73.40
4755;DHT22;2391;47.212;7.542;2022-07-22T00:50:14;25.40;73.30
4755;DHT22;2391;47.212;7.542;2022-07-22T00:52:42;25.40;73.40
4755;DHT22;2391;47.212;7.542;2022-07-22T00:55:09;25.30;73.50
4755;DHT22;2391;47.212;7.542;2022-07-22T00:57:38;25.30;73.80
4755;DHT22;2391;47.212;7.542;2022-07-22T01:00:07;25.20;73.90
4755;DHT22;2391;47.212;7.542;2022-07-22T01:02:34;25.20;74.10
4755;DHT22;2391;47.212;7.542;2022-07-22T01:05:00;25.10;74.20
4755;DHT22;2391;47.212;7.542;2022-07-22T01:07:26;25.10;74.40
4755;DHT22;2391;47.212;7.542;2022-07-22T01:09:52;25.10;74.80
4755;DHT22;2391;47.212;7.542;2022-07-22T01:12:18;25.00;75.20
4755;DHT22;2391;47.212;7.542;2022-07-22T01:14:44;24.80;75.80
4755;DHT22;2391;47.212;7.542;2022-07-22T01:17:10;24.80;76.30
4755;DHT22;2391;47.212;7.542;2022-07-22T01:19:37;24.70;76.60
4755;DHT22;2391;47.212;7.542;2022-07-22T01:22:04;24.70;76.80
4755;DHT22;2391;47.212;7.542;2022-07-22T01:24:30;24.60;76.60
4755;DHT22;2391;47.212;7.542;2022-07-22T01:26:56;24.60;76.70
4755;DHT22;2391;47.212;7.542;2022-07-22T01:29:22;24.50;76.70
4755;DHT22;2391;47.212;7.542;2022-07-22T01:31:50;24.50;77.00
4755;DHT22;2391;47.212;7.542;2022-07-22T01:34:16;24.50;77.20
4755;DHT22;2391;47.212;7.542;2022-07-22T01:36:42;24.40;77.10
4755;DHT22;2391;47.212;7.542;2022-07-22T01:39:09;24.40;77.30
4755;DHT22;2391;47.212;7.542;2022-07-22T01:41:35;24.40;77.40
4755;DHT22;2391;47.212;7.542;2022-07-22T01:44:01;24.40;77.40
4755;DHT22;2391;47.212;7.542;2022-07-22T01:46:27;24.40;77.50
4755;DHT22;2391;47.212;7.542;2022-07-22T01:48:53;24.40;77.60
4755;DHT22;2391;47.212;7.542;2022-07-22T01:51:20;24.40;77.70
4755;DHT22;2391;47.212;7.542;2022-07-22T01:53:46;24.30;77.80
4755;DHT22;2391;47.212;7.542;2022-07-22T01:56:12;24.30;77.80
4755;DHT22;2391;47.212;7.542;2022-07-22T01:58:38;24.30;77.90
4755;DHT22;2391;47.212;7.542;2022-07-22T02:01:06;24.30;77.80
4755;DHT22;2391;47.212;7.542;2022-07-22T02:03:32;24.30;77.70
4755;DHT22;2391;47.212;7.542;2022-07-22T02:05:59;24.30;77.50
4755;DHT22;2391;47.212;7.542;2022-07-22T02:08:25;24.30;77.50
4755;DHT22;2391;47.212;7.542;2022-07-22T02:10:51;24.30;77.30
4755;DHT22;2391;47.212;7.542;2022-07-22T02:13:17;24.30;77.10
4755;DHT22;2391;47.212;7.542;2022-07-22T02:15:45;24.30;76.90
4755;DHT22;2391;47.212;7.542;2022-07-22T02:18:15;24.30;76.70
4755;DHT22;2391;47.212;7.542;2022-07-22T02:20:41;24.20;76.40
4755;DHT22;2391;47.212;7.542;2022-07-22T02:23:08;24.20;76.20
4755;DHT22;2391;47.212;7.542;2022-07-22T02:25:34;24.10;76.20
4755;DHT22;2391;47.212;7.542;2022-07-22T02:28:00;24.10;76.30
4755;DHT22;2391;47.212;7.542;2022-07-22T02:30:26;24.10;76.30
4755;DHT22;2391;47.212;7.542;2022-07-22T02:32:52;24.00;76.40
4755;DHT22;2391;47.212;7.542;2022-07-22T02:35:18;24.00;76.70
4755;DHT22;2391;47.212;7.542;2022-07-22T02:37:44;23.90;76.60
4755;DHT22;2391;47.212;7.542;2022-07-22T02:40:11;24.00;76.70
4755;DHT22;2391;47.212;7.542;2022-07-22T02:42:37;24.00;76.60
4755;DHT22;2391;47.212;7.542;2022-07-22T02:45:03;23.90;76.60
4755;DHT22;2391;47.212;7.542;2022-07-22T02:47:29;23.90;76.60
4755;DHT22;2391;47.212;7.542;2022-07-22T02:49:55;23.90;76.90
4755;DHT22;2391;47.212;7.542;2022-07-22T02:52:22;23.80;77.20
4755;DHT22;2391;47.212;7.542;2022-07-22T02:54:48;23.70;77.50
4755;DHT22;2391;47.212;7.542;2022-07-22T02:57:14;23.80;77.70
4755;DHT22;2391;47.212;7.542;2022-07-22T02:59:40;23.70;78.00
4755;DHT22;2391;47.212;7.542;2022-07-22T03:02:06;23.70;78.10
4755;DHT22;2391;47.212;7.542;2022-07-22T03:04:32;23.60;77.60
4755;DHT22;2391;47.212;7.542;2022-07-22T03:06:58;23.60;77.50
4755;DHT22;2391;47.212;7.542;2022-07-22T03:09:24;23.50;77.70
4755;DHT22;2391;47.212;7.542;2022-07-22T03:11:50;23.50;77.90
4755;DHT22;2391;47.212;7.542;2022-07-22T03:14:16;23.50;78.20
4755;DHT22;2391;47.212;7.542;2022-07-22T03:16:44;23.50;78.50
4755;DHT22;2391;47.212;7.542;2022-07-22T03:19:10;23.50;78.70
4755;DHT22;2391;47.212;7.542;2022-07-22T03:21:37;23.40;78.80
4755;DHT22;2391;47.212;7.542;2022-07-22T03:24:03;23.40;78.90
4755;DHT22;2391;47.212;7.542;2022-07-22T03:26:29;23.40;78.80
4755;DHT22;2391;47.212;7.542;2022-07-22T03:28:55;23.40;78.90
4755;DHT22;2391;47.212;7.542;2022-07-22T03:31:21;23.40;79.00
4755;DHT22;2391;47.212;7.542;2022-07-22T03:33:47;23.40;78.90
4755;DHT22;2391;47.212;7.542;2022-07-22T03:36:14;23.30;79.00
4755;DHT22;2391;47.212;7.542;2022-07-22T03:38:39;23.30;79.10
4755;DHT22;2391;47.212;7.542;2022-07-22T03:41:06;23.30;78.90
4755;DHT22;2391;47.212;7.542;2022-07-22T03:43:32;23.30;78.90
4755;DHT22;2391;47.212;7.542;2022-07-22T03:45:58;23.20;78.90
4755;DHT22;2391;47.212;7.542;2022-07-22T03:48:24;23.20;79.10
4755;DHT22;2391;47.212;7.542;2022-07-22T03:50:50;23.10;79.20
4755;DHT22;2391;47.212;7.542;2022-07-22T03:53:17;23.10;79.40
4755;DHT22;2391;47.212;7.542;2022-07-22T03:55:43;23.10;79.80
4755;DHT22;2391;47.212;7.542;2022-07-22T03:58:09;23.10;80.50
4755;DHT22;2391;47.212;7.542;2022-07-22T04:00:35;23.00;80.00
4755;DHT22;2391;47.212;7.542;2022-07-22T04:03:01;23.00;80.20
4755;DHT22;2391;47.212;7.542;2022-07-22T04:05:27;23.00;80.20
4755;DHT22;2391;47.212;7.542;2022-07-22T04:07:53;23.00;80.40
4755;DHT22;2391;47.212;7.542;2022-07-22T04:10:19;23.00;80.60
4755;DHT22;2391;47.212;7.542;2022-07-22T04:12:46;23.00;80.60
4755;DHT22;2391;47.212;7.542;2022-07-22T04:15:12;23.00;80.60
4755;DHT22;2391;47.212;7.542;2022-07-22T04:17:38;23.00;80.20
4755;DHT22;2391;47.212;7.542;2022-07-22T04:20:05;23.10;80.50
4755;DHT22;2391;47.212;7.542;2022-07-22T04:22:32;23.10;80.80
4755;DHT22;2391;47.212;7.542;2022-07-22T04:24:58;23.00;80.70
4755;DHT22;2391;47.212;7.542;2022-07-22T04:27:24;23.00;80.80
4755;DHT22;2391;47.212;7.542;2022-07-22T04:29:50;23.00;81.20
4755;DHT22;2391;47.212;7.542;2022-07-22T04:32:16;23.00;81.30
4755;DHT22;2391;47.212;7.542;2022-07-22T04:34:42;23.00;81.20
4755;DHT22;2391;47.212;7.542;2022-07-22T04:37:08;23.00;81.00
4755;DHT22;2391;47.212;7.542;2022-07-22T04:39:34;23.00;81.10
4755;DHT22;2391;47.212;7.542;2022-07-22T04:42:00;23.00;81.50
4755;DHT22;2391;47.212;7.542;2022-07-22T04:44:26;23.00;81.50
4755;DHT22;2391;47.212;7.542;2022-07-22T04:46:52;23.00;81.70
4755;DHT22;2391;47.212;7.542;2022-07-22T04:49:18;23.00;81.60
4755;DHT22;2391;47.212;7.542;2022-07-22T04:51:44;23.00;81.70
4755;DHT22;2391;47.212;7.542;2022-07-22T04:54:10;23.00;82.20
4755;DHT22;2391;47.212;7.542;2022-07-22T04:56:36;22.90;82.10
4755;DHT22;2391;47.212;7.542;2022-07-22T04:59:03;22.90;82.30
4755;DHT22;2391;47.212;7.542;2022-07-22T05:01:29;22.90;82.30
4755;DHT22;2391;47.212;7.542;2022-07-22T05:03:55;23.00;83.00
4755;DHT22;2391;47.212;7.542;2022-07-22T05:06:21;22.90;82.40
4755;DHT22;2391;47.212;7.542;2022-07-22T05:08:47;23.00;82.90
4755;DHT22;2391;47.212;7.542;2022-07-22T05:11:13;22.90;82.50
4755;DHT22;2391;47.212;7.542;2022-07-22T05:13:39;23.00;82.90
4755;DHT22;2391;47.212;7.542;2022-07-22T05:16:06;23.00;83.00
4755;DHT22;2391;47.212;7.542;2022-07-22T05:18:33;23.10;82.80
4755;DHT22;2391;47.212;7.542;2022-07-22T05:21:00;23.10;82.60
4755;DHT22;2391;47.212;7.542;2022-07-22T05:23:26;23.10;82.70
4755;DHT22;2391;47.212;7.542;2022-07-22T05:25:52;23.10;82.80
4755;DHT22;2391;47.212;7.542;2022-07-22T05:28:18;23.10;83.00
4755;DHT22;2391;47.212;7.542;2022-07-22T05:30:45;23.20;82.80
4755;DHT22;2391;47.212;7.542;2022-07-22T05:33:11;23.20;82.40
4755;DHT22;2391;47.212;7.542;2022-07-22T05:35:37;23.20;81.90
4755;DHT22;2391;47.212;7.542;2022-07-22T05:38:03;23.20;81.50
4755;DHT22;2391;47.212;7.542;2022-07-22T05:40:31;23.20;81.60
4755;DHT22;2391;47.212;7.542;2022-07-22T05:42:57;23.20;81.50
4755;DHT22;2391;47.212;7.542;2022-07-22T05:45:24;23.30;81.40
4755;DHT22;2391;47.212;7.542;2022-07-22T05:47:50;23.30;81.50
4755;DHT22;2391;47.212;7.542;2022-07-22T05:50:16;23.20;82.00
4755;DHT22;2391;47.212;7.542;2022-07-22T05:52:42;23.20;81.70
4755;DHT22;2391;47.212;7.542;2022-07-22T05:55:08;23.20;82.00
4755;DHT22;2391;47.212;7.542;2022-07-22T05:57:35;23.30;82.10
4755;DHT22;2391;47.212;7.542;2022-07-22T06:00:03;23.30;81.80
4755;DHT22;2391;47.212;7.542;2022-07-22T06:02:29;23.30;82.10
4755;DHT22;2391;47.212;7.542;2022-07-22T06:04:56;23.30;82.40
4755;DHT22;2391;47.212;7.542;2022-07-22T06:07:21;23.30;82.60
4755;DHT22;2391;47.212;7.542;2022-07-22T06:09:47;23.30;82.20
4755;DHT22;2391;47.212;7.542;2022-07-22T06:12:13;23.40;82.20
4755;DHT22;2391;47.212;7.542;2022-07-22T06:14:39;23.50;82.40
4755;DHT22;2391;47.212;7.542;2022-07-22T06:17:05;23.60;82.70
4755;DHT22;2391;47.212;7.542;2022-07-22T06:19:31;23.70;81.80
4755;DHT22;2391;47.212;7.542;2022-07-22T06:21:58;23.80;81.10
4755;DHT22;2391;47.212;7.542;2022-07-22T06:24:24;24.00;81.30
4755;DHT22;2391;47.212;7.542;2022-07-22T06:26:50;24.10;80.70
4755;DHT22;2391;47.212;7.542;2022-07-22T06:29:17;24.30;80.00
4755;DHT22;2391;47.212;7.542;2022-07-22T06:31:43;24.60;79.80
4755;DHT22;2391;47.212;7.542;2022-07-22T06:34:09;24.80;79.40
4755;DHT22;2391;47.212;7.542;2022-07-22T06:36:35;25.00;78.40
4755;DHT22;2391;47.212;7.542;2022-07-22T06:39:01;25.20;77.10
4755;DHT22;2391;47.212;7.542;2022-07-22T06:41:27;25.40;76.90
4755;DHT22;2391;47.212;7.542;2022-07-22T06:43:53;25.60;75.20
4755;DHT22;2391;47.212;7.542;2022-07-22T06:46:20;25.70;75.40
4755;DHT22;2391;47.212;7.542;2022-07-22T06:48:45;25.90;74.90
4755;DHT22;2391;47.212;7.542;2022-07-22T06:51:11;26.00;74.40
4755;DHT22;2391;47.212;7.542;2022-07-22T06:56:12;26.20;73.50
4755;DHT22;2391;47.212;7.542;2022-07-22T06:58:38;26.30;73.20
4755;DHT22;2391;47.212;7.542;2022-07-22T07:01:04;26.30;73.30
4755;DHT22;2391;47.212;7.542;2022-07-22T07:03:30;26.30;73.80
4755;DHT22;2391;47.212;7.542;2022-07-22T07:05:56;26.40;74.00
4755;DHT22;2391;47.212;7.542;2022-07-22T07:08:22;26.50;73.60
4755;DHT22;2391;47.212;7.542;2022-07-22T07:10:48;26.60;73.40
4755;DHT22;2391;47.212;7.542;2022-07-22T07:13:15;26.80;73.40
4755;DHT22;2391;47.212;7.542;2022-07-22T07:15:41;26.90;73.40
4755;DHT22;2391;47.212;7.542;2022-07-22T07:18:07;27.00;72.60
4755;DHT22;2391;47.212;7.542;2022-07-22T07:20:39;27.10;72.80
4755;DHT22;2391;47.212;7.542;2022-07-22T07:23:07;27.20;73.00
4755;DHT22;2391;47.212;7.542;2022-07-22T07:25:33;27.20;72.20
4755;DHT22;2391;47.212;7.542;2022-07-22T07:28:00;27.40;72.70
4755;DHT22;2391;47.212;7.542;2022-07-22T07:30:26;27.50;72.40
4755;DHT22;2391;47.212;7.542;2022-07-22T07:32:52;27.60;71.90
4755;DHT22;2391;47.212;7.542;2022-07-22T07:35:18;27.60;71.00
4755;DHT22;2391;47.212;7.542;2022-07-22T07:37:45;27.70;70.70
4755;DHT22;2391;47.212;7.542;2022-07-22T07:40:12;27.70;70.70
4755;DHT22;2391;47.212;7.542;2022-07-22T07:42:38;27.80;71.50
4755;DHT22;2391;47.212;7.542;2022-07-22T07:45:05;27.80;70.40
4755;DHT22;2391;47.212;7.542;2022-07-22T07:47:31;27.80;70.80
4755;DHT22;2391;47.212;7.542;2022-07-22T07:49:57;27.90;70.90
4755;DHT22;2391;47.212;7.542;2022-07-22T07:52:26;28.00;69.90
4755;DHT22;2391;47.212;7.542;2022-07-22T07:54:53;28.10;70.80
4755;DHT22;2391;47.212;7.542;2022-07-22T07:57:21;28.10;70.10
4755;DHT22;2391;47.212;7.542;2022-07-22T07:59:47;28.20;70.00
4755;DHT22;2391;47.212;7.542;2022-07-22T08:02:13;28.30;69.70
4755;DHT22;2391;47.212;7.542;2022-07-22T08:04:39;28.40;69.30
4755;DHT22;2391;47.212;7.542;2022-07-22T08:07:06;28.50;69.10
4755;DHT22;2391;47.212;7.542;2022-07-22T08:09:32;28.50;69.20
4755;DHT22;2391;47.212;7.542;2022-07-22T08:12:00;28.60;70.10
4755;DHT22;2391;47.212;7.542;2022-07-22T08:14:27;28.60;70.20
4755;DHT22;2391;47.212;7.542;2022-07-22T08:16:53;28.70;69.10
4755;DHT22;2391;47.212;7.542;2022-07-22T08:26:02;28.80;69.10
4755;DHT22;2391;47.212;7.542;2022-07-22T08:28:28;28.90;69.50
4755;DHT22;2391;47.212;7.542;2022-07-22T08:30:54;28.90;68.70
4755;DHT22;2391;47.212;7.542;2022-07-22T08:33:20;29.00;68.50
4755;DHT22;2391;47.212;7.542;2022-07-22T08:35:47;29.00;69.00
4755;DHT22;2391;47.212;7.542;2022-07-22T08:38:13;29.10;69.70
4755;DHT22;2391;47.212;7.542;2022-07-22T08:40:39;29.10;68.60
4755;DHT22;2391;47.212;7.542;2022-07-22T08:43:05;29.10;68.30
4755;DHT22;2391;47.212;7.542;2022-07-22T08:45:32;29.10;69.40
4755;DHT22;2391;47.212;7.542;2022-07-22T08:48:01;29.20;68.60
4755;DHT22;2391;47.212;7.542;2022-07-22T08:50:30;29.20;68.20
4755;DHT22;2391;47.212;7.542;2022-07-22T08:52:56;29.30;68.20
4755;DHT22;2391;47.212;7.542;2022-07-22T08:55:23;29.40;68.20
4755;DHT22;2391;47.212;7.542;2022-07-22T08:57:49;29.40;67.50
4755;DHT22;2391;47.212;7.542;2022-07-22T09:00:18;29.40;66.80
4755;DHT22;2391;47.212;7.542;2022-07-22T09:02:45;29.50;66.50
4755;DHT22;2391;47.212;7.542;2022-07-22T09:05:13;29.50;67.50
4755;DHT22;2391;47.212;7.542;2022-07-22T09:07:43;29.50;66.70
4755;DHT22;2391;47.212;7.542;2022-07-22T09:10:17;29.60;66.80
4755;DHT22;2391;47.212;7.542;2022-07-22T09:15:28;29.60;65.30
4755;DHT22;2391;47.212;7.542;2022-07-22T09:17:55;29.80;65.50
4755;DHT22;2391;47.212;7.542;2022-07-22T09:20:21;29.80;64.70
4755;DHT22;2391;47.212;7.542;2022-07-22T09:22:48;29.80;66.60
4755;DHT22;2391;47.212;7.542;2022-07-22T09:27:48;29.90;64.20
4755;DHT22;2391;47.212;7.542;2022-07-22T09:30:20;29.90;64.60
4755;DHT22;2391;47.212;7.542;2022-07-22T09:32:54;29.90;64.60
4755;DHT22;2391;47.212;7.542;2022-07-22T09:35:21;30.00;64.70
4755;DHT22;2391;47.212;7.542;2022-07-22T09:37:57;30.00;63.20
4755;DHT22;2391;47.212;7.542;2022-07-22T09:40:29;30.00;62.90
4755;DHT22;2391;47.212;7.542;2022-07-22T09:42:57;29.90;64.30
4755;DHT22;2391;47.212;7.542;2022-07-22T09:45:27;30.00;64.00
4755;DHT22;2391;47.212;7.542;2022-07-22T09:48:00;30.00;65.70
4755;DHT22;2391;47.212;7.542;2022-07-22T09:50:45;30.10;65.90
4755;DHT22;2391;47.212;7.542;2022-07-22T09:53:12;30.10;64.30
4755;DHT22;2391;47.212;7.542;2022-07-22T09:55:39;30.10;65.00
4755;DHT22;2391;47.212;7.542;2022-07-22T09:58:06;30.20;65.20
4755;DHT22;2391;47.212;7.542;2022-07-22T10:00:34;30.20;64.70
4755;DHT22;2391;47.212;7.542;2022-07-22T10:03:05;30.30;64.50
4755;DHT22;2391;47.212;7.542;2022-07-22T10:05:37;30.40;65.10
4755;DHT22;2391;47.212;7.542;2022-07-22T12:02:03;31.80;57.10
4755;DHT22;2391;47.212;7.542;2022-07-22T12:04:30;31.80;57.60
4755;DHT22;2391;47.212;7.542;2022-07-22T12:06:58;31.90;57.00
4755;DHT22;2391;47.212;7.542;2022-07-22T12:09:26;31.90;55.30
4755;DHT22;2391;47.212;7.542;2022-07-22T12:11:56;31.90;56.70
4755;DHT22;2391;47.212;7.542;2022-07-22T12:14:27;31.90;56.80
4755;DHT22;2391;47.212;7.542;2022-07-22T12:20:13;32.00;58.40
4755;DHT22;2391;47.212;7.542;2022-07-22T12:22:45;32.10;58.80
4755;DHT22;2391;47.212;7.542;2022-07-22T12:25:11;32.20;57.50
4755;DHT22;2391;47.212;7.542;2022-07-22T12:27:37;32.20;58.50
4755;DHT22;2391;47.212;7.542;2022-07-22T12:30:13;32.20;58.80
4755;DHT22;2391;47.212;7.542;2022-07-22T12:32:46;32.20;59.20
4755;DHT22;2391;47.212;7.542;2022-07-22T12:35:09;32.30;59.60
4755;DHT22;2391;47.212;7.542;2022-07-22T12:37:44;32.40;59.60
4755;DHT22;2391;47.212;7.542;2022-07-22T12:42:45;32.50;57.70
4755;DHT22;2391;47.212;7.542;2022-07-22T12:45:13;32.50;57.60
4755;DHT22;2391;47.212;7.542;2022-07-22T12:47:51;32.50;57.30
4755;DHT22;2391;47.212;7.542;2022-07-22T12:50:37;32.50;56.70
4755;DHT22;2391;47.212;7.542;2022-07-22T12:55:36;32.70;55.90
4755;DHT22;2391;47.212;7.542;2022-07-22T12:58:07;32.80;56.00
4755;DHT22;2391;47.212;7.542;2022-07-22T13:00:38;32.80;55.90
4755;DHT22;2391;47.212;7.542;2022-07-22T13:03:05;32.80;56.30
4755;DHT22;2391;47.212;7.542;2022-07-22T13:05:31;32.80;56.30
4755;DHT22;2391;47.212;7.542;2022-07-22T13:07:57;32.70;57.30
4755;DHT22;2391;47.212;7.542;2022-07-22T13:10:25;32.80;57.30
4755;DHT22;2391;47.212;7.542;2022-07-22T13:12:59;32.80;57.00
4755;DHT22;2391;47.212;7.542;2022-07-22T13:45:04;33.10;55.50
4755;DHT22;2391;47.212;7.542;2022-07-22T13:47:32;33.20;54.80
4755;DHT22;2391;47.212;7.542;2022-07-22T13:49:58;33.20;54.70
4755;DHT22;2391;47.212;7.542;2022-07-22T13:52:24;33.30;54.10
4755;DHT22;2391;47.212;7.542;2022-07-22T13:54:50;33.30;55.20
4755;DHT22;2391;47.212;7.542;2022-07-22T13:57:17;33.40;55.50
4755;DHT22;2391;47.212;7.542;2022-07-22T14:03:05;33.50;54.20
4755;DHT22;2391;47.212;7.542;2022-07-22T14:23:52;33.60;51.20
4755;DHT22;2391;47.212;7.542;2022-07-22T14:26:18;33.60;51.80
4755;DHT22;2391;47.212;7.542;2022-07-22T14:28:44;33.60;50.80
4755;DHT22;2391;47.212;7.542;2022-07-22T14:31:10;33.70;51.50
4755;DHT22;2391;47.212;7.542;2022-07-22T14:33:36;33.70;52.50
4755;DHT22;2391;47.212;7.542;2022-07-22T14:36:02;33.80;50.90
4755;DHT22;2391;47.212;7.542;2022-07-22T14:38:28;33.70;51.20
4755;DHT22;2391;47.212;7.542;2022-07-22T14:40:54;33.80;52.00
4755;DHT22;2391;47.212;7.542;2022-07-22T14:43:25;33.80;51.90
4755;DHT22;2391;47.212;7.542;2022-07-22T14:45:55;33.80;50.90
4755;DHT22;2391;47.212;7.542;2022-07-22T14:48:23;33.80;49.60
4755;DHT22;2391;47.212;7.542;2022-07-22T14:50:49;33.80;50.50
4755;DHT22;2391;47.212;7.542;2022-07-22T14:53:15;33.80;51.40
4755;DHT22;2391;47.212;7.542;2022-07-22T14:55:42;33.80;50.90
4755;DHT22;2391;47.212;7.542;2022-07-22T14:58:08;33.90;50.50
4755;DHT22;2391;47.212;7.542;2022-07-22T15:00:34;33.90;50.10
4755;DHT22;2391;47.212;7.542;2022-07-22T15:03:01;34.00;50.90
4755;DHT22;2391;47.212;7.542;2022-07-22T15:05:26;34.00;51.40
4755;DHT22;2391;47.212;7.542;2022-07-22T15:55:24;34.00;54.00
4755;DHT22;2391;47.212;7.542;2022-07-22T15:57:52;34.00;54.10
4755;DHT22;2391;47.212;7.542;2022-07-22T16:00:36;34.00;53.60
4755;DHT22;2391;47.212;7.542;2022-07-22T16:03:02;34.00;54.60
4755;DHT22;2391;47.212;7.542;2022-07-22T16:05:29;34.00;54.50
4755;DHT22;2391;47.212;7.542;2022-07-22T16:07:55;34.00;54.40
4755;DHT22;2391;47.212;7.542;2022-07-22T16:10:21;34.00;54.30
4755;DHT22;2391;47.212;7.542;2022-07-22T16:12:47;34.00;54.60
4755;DHT22;2391;47.212;7.542;2022-07-22T16:15:13;34.00;54.70
4755;DHT22;2391;47.212;7.542;2022-07-22T16:17:40;34.10;55.00
4755;DHT22;2391;47.212;7.542;2022-07-22T16:20:08;34.10;55.70
4755;DHT22;2391;47.212;7.542;2022-07-22T16:22:35;34.10;55.60
4755;DHT22;2391;47.212;7.542;2022-07-22T16:25:03;34.00;55.20
4755;DHT22;2391;47.212;7.542;2022-07-22T16:27:29;34.00;56.20
4755;DHT22;2391;47.212;7.542;2022-07-22T16:29:56;34.00;56.20
4755;DHT22;2391;47.212;7.542;2022-07-22T16:32:22;34.00;56.80
4755;DHT22;2391;47.212;7.542;2022-07-22T16:34:48;34.00;56.90
4755;DHT22;2391;47.212;7.542;2022-07-22T16:37:14;34.00;57.20
4755;DHT22;2391;47.212;7.542;2022-07-22T16:39:40;33.90;57.00
4755;DHT22;2391;47.212;7.542;2022-07-22T16:42:07;33.80;56.90
4755;DHT22;2391;47.212;7.542;2022-07-22T16:44:32;33.80;57.20
4755;DHT22;2391;47.212;7.542;2022-07-22T16:46:58;33.80;57.30
4755;DHT22;2391;47.212;7.542;2022-07-22T16:49:24;33.80;57.00
4755;DHT22;2391;47.212;7.542;2022-07-22T16:51:51;33.70;57.00
4755;DHT22;2391;47.212;7.542;2022-07-22T16:54:17;33.70;57.50
4755;DHT22;2391;47.212;7.542;2022-07-22T16:56:43;33.70;57.30
4755;DHT22;2391;47.212;7.542;2022-07-22T16:59:09;33.70;57.50
4755;DHT22;2391;47.212;7.542;2022-07-22T17:01:35;33.70;58.00
4755;DHT22;2391;47.212;7.542;2022-07-22T17:04:01;33.80;58.10
4755;DHT22;2391;47.212;7.542;2022-07-22T17:06:27;33.80;57.90
4755;DHT22;2391;47.212;7.542;2022-07-22T17:08:54;33.80;58.10
4755;DHT22;2391;47.212;7.542;2022-07-22T17:11:20;33.80;58.10
4755;DHT22;2391;47.212;7.542;2022-07-22T17:13:46;33.80;58.10
4755;DHT22;2391;47.212;7.542;2022-07-22T17:16:12;33.80;57.60
4755;DHT22;2391;47.212;7.542;2022-07-22T17:18:38;33.70;58.20
4755;DHT22;2391;47.212;7.542;2022-07-22T17:21:06;33.70;59.10
4755;DHT22;2391;47.212;7.542;2022-07-22T17:23:32;33.70;58.00
4755;DHT22;2391;47.212;7.542;2022-07-22T17:25:58;33.70;58.30
4755;DHT22;2391;47.212;7.542;2022-07-22T17:28:24;33.70;58.00
4755;DHT22;2391;47.212;7.542;2022-07-22T17:30:50;33.60;57.50
4755;DHT22;2391;47.212;7.542;2022-07-22T17:33:16;33.60;57.70
4755;DHT22;2391;47.212;7.542;2022-07-22T17:35:42;33.60;57.90
4755;DHT22;2391;47.212;7.542;2022-07-22T17:38:09;33.60;57.50
4755;DHT22;2391;47.212;7.542;2022-07-22T17:40:35;33.50;57.90
4755;DHT22;2391;47.212;7.542;2022-07-22T17:43:01;33.40;57.80
4755;DHT22;2391;47.212;7.542;2022-07-22T17:45:27;33.30;57.20
4755;DHT22;2391;47.212;7.542;2022-07-22T17:47:53;33.20;57.20
4755;DHT22;2391;47.212;7.542;2022-07-22T17:50:19;33.10;56.70
4755;DHT22;2391;47.212;7.542;2022-07-22T17:52:46;33.00;57.00
4755;DHT22;2391;47.212;7.542;2022-07-22T17:55:12;32.90;57.10
4755;DHT22;2391;47.212;7.542;2022-07-22T17:57:38;33.00;57.00
4755;DHT22;2391;47.212;7.542;2022-07-22T18:00:05;33.00;56.20
4755;DHT22;2391;47.212;7.542;2022-07-22T18:02:32;32.90;56.10
4755;DHT22;2391;47.212;7.542;2022-07-22T18:04:59;32.80;56.20
4755;DHT22;2391;47.212;7.542;2022-07-22T18:07:25;32.80;56.70
4755;DHT22;2391;47.212;7.542;2022-07-22T18:09:51;32.70;56.10
4755;DHT22;2391;47.212;7.542;2022-07-22T18:12:17;32.70;56.10
4755;DHT22;2391;47.212;7.542;2022-07-22T18:14:43;32.60;56.10
4755;DHT22;2391;47.212;7.542;2022-07-22T18:17:09;32.60;56.40
4755;DHT22;2391;47.212;7.542;2022-07-22T18:19:36;32.50;56.40
4755;DHT22;2391;47.212;7.542;2022-07-22T18:22:02;32.40;56.20
4755;DHT22;2391;47.212;7.542;2022-07-22T18:24:28;32.40;56.60
4755;DHT22;2391;47.212;7.542;2022-07-22T18:26:54;32.50;57.10
4755;DHT22;2391;47.212;7.542;2022-07-22T18:29:20;32.40;56.40
4755;DHT22;2391;47.212;7.542;2022-07-22T18:31:46;32.40;56.10
4755;DHT22;2391;47.212;7.542;2022-07-22T18:34:12;32.30;56.50
4755;DHT22;2391;47.212;7.542;2022-07-22T18:36:40;32.20;56.20
4755;DHT22;2391;47.212;7.542;2022-07-22T18:39:07;32.10;56.10
4755;DHT22;2391;47.212;7.542;2022-07-22T18:41:33;32.00;56.40
4755;DHT22;2391;47.212;7.542;2022-07-22T18:43:59;31.90;56.80
4755;DHT22;2391;47.212;7.542;2022-07-22T18:46:25;31.90;55.50
4755;DHT22;2391;47.212;7.542;2022-07-22T18:48:52;31.70;53.80
4755;DHT22;2391;47.212;7.542;2022-07-22T18:51:18;31.70;54.50
4755;DHT22;2391;47.212;7.542;2022-07-22T18:53:44;31.70;53.70
4755;DHT22;2391;47.212;7.542;2022-07-22T18:56:10;31.70;53.60
4755;DHT22;2391;47.212;7.542;2022-07-22T18:58:36;31.60;53.10
4755;DHT22;2391;47.212;7.542;2022-07-22T19:01:03;31.50;53.10
4755;DHT22;2391;47.212;7.542;2022-07-22T19:03:29;31.50;51.70
4755;DHT22;2391;47.212;7.542;2022-07-22T19:05:55;31.50;51.20
4755;DHT22;2391;47.212;7.542;2022-07-22T19:08:22;31.40;51.40
4755;DHT22;2391;47.212;7.542;2022-07-22T19:10:48;31.40;51.80
4755;DHT22;2391;47.212;7.542;2022-07-22T19:13:14;31.30;51.90
4755;DHT22;2391;47.212;7.542;2022-07-22T19:15:40;31.30;52.10
4755;DHT22;2391;47.212;7.542;2022-07-22T19:18:06;31.30;52.30
4755;DHT22;2391;47.212;7.542;2022-07-22T19:20:32;31.20;52.80
4755;DHT22;2391;47.212;7.542;2022-07-22T19:22:58;31.30;53.10
4755;DHT22;2391;47.212;7.542;2022-07-22T19:25:25;31.20;53.10
4755;DHT22;2391;47.212;7.542;2022-07-22T19:27:51;31.10;53.70
4755;DHT22;2391;47.212;7.542;2022-07-22T19:30:17;31.00;53.80
4755;DHT22;2391;47.212;7.542;2022-07-22T19:32:43;31.00;53.30
4755;DHT22;2391;47.212;7.542;2022-07-22T19:35:09;30.90;53.20
4755;DHT22;2391;47.212;7.542;2022-07-22T19:37:35;30.90;53.40
4755;DHT22;2391;47.212;7.542;2022-07-22T19:40:01;30.90;53.40
4755;DHT22;2391;47.212;7.542;2022-07-22T19:42:28;30.90;53.60
4755;DHT22;2391;47.212;7.542;2022-07-22T19:44:54;30.90;53.30
4755;DHT22;2391;47.212;7.542;2022-07-22T19:47:21;30.80;53.40
4755;DHT22;2391;47.212;7.542;2022-07-22T19:49:48;30.70;53.50
4755;DHT22;2391;47.212;7.542;2022-07-22T19:52:14;30.80;53.50
4755;DHT22;2391;47.212;7.542;2022-07-22T19:54:40;30.70;52.50